createdAt,value
2023-04-03T00:00:34.640Z,6.82
2023-04-03T00:03:01.704Z,6.80
2023-04-03T00:05:28.443Z,6.77
2023-04-03T00:07:55.154Z,6.77
2023-04-03T00:10:21.847Z,6.76
2023-04-03T00:12:48.592Z,6.77
2023-04-03T00:15:15.496Z,6.77
2023-04-03T00:17:42.903Z,6.77
2023-04-03T00:20:09.819Z,6.75
2023-04-03T00:22:36.544Z,6.71
2023-04-03T00:25:04.230Z,6.68
2023-04-03T00:27:30.955Z,6.68
2023-04-03T00:29:57.697Z,6.67
2023-04-03T00:32:24.416Z,6.66
2023-04-03T00:34:51.286Z,6.61
2023-04-03T00:37:17.989Z,6.60
2023-04-03T00:39:44.648Z,6.60
2023-04-03T00:42:12.027Z,6.61
2023-04-03T00:44:38.639Z,6.59
2023-04-03T00:47:08.156Z,6.57
2023-04-03T00:49:36.413Z,6.54
2023-04-03T00:52:03.778Z,6.50
2023-04-03T00:54:30.950Z,6.51
2023-04-03T00:56:59.160Z,6.49
2023-04-03T00:59:31.287Z,6.48
2023-04-03T01:02:00.294Z,6.47
2023-04-03T01:04:34.573Z,6.48
2023-04-03T01:07:27.547Z,6.47
2023-04-03T01:09:58.766Z,6.46
2023-04-03T01:12:36.813Z,6.44
2023-04-03T01:15:11.201Z,6.43
2023-04-03T01:17:42.006Z,6.42
2023-04-03T01:20:34.187Z,6.41
2023-04-03T01:23:09.898Z,6.42
2023-04-03T01:25:41.705Z,6.40
2023-04-03T01:28:12.098Z,6.41
2023-04-03T01:30:48.607Z,6.38
2023-04-03T01:33:16.375Z,6.37
2023-04-03T01:35:43.076Z,6.37
2023-04-03T01:38:09.757Z,6.35
2023-04-03T01:40:37.229Z,6.32
2023-04-03T01:43:04.284Z,6.33
2023-04-03T01:45:31.148Z,6.34
2023-04-03T01:47:57.955Z,6.34
2023-04-03T01:50:24.680Z,6.34
2023-04-03T01:52:51.353Z,6.35
2023-04-03T01:55:17.985Z,6.37
2023-04-03T01:57:44.624Z,6.37
2023-04-03T02:00:11.672Z,6.39
2023-04-03T02:02:38.492Z,6.40
2023-04-03T02:05:05.836Z,6.41
2023-04-03T02:07:32.601Z,6.42
2023-04-03T02:09:59.273Z,6.41
2023-04-03T02:12:25.971Z,6.42
2023-04-03T02:14:52.774Z,6.39
2023-04-03T02:17:19.413Z,6.40
2023-04-03T02:19:46.084Z,6.40
2023-04-03T02:22:12.733Z,6.41
2023-04-03T02:24:41.338Z,6.41
2023-04-03T02:27:08.092Z,6.41
2023-04-03T02:29:34.720Z,6.44
2023-04-03T02:32:01.486Z,6.45
2023-04-03T02:34:28.176Z,6.48
2023-04-03T02:36:54.826Z,6.50
2023-04-03T02:39:21.960Z,6.50
2023-04-03T02:41:48.571Z,6.51
2023-04-03T02:44:15.579Z,6.52
2023-04-03T02:46:42.293Z,6.53
2023-04-03T02:49:08.946Z,6.56
2023-04-03T02:51:35.678Z,6.58
2023-04-03T02:54:02.634Z,6.59
2023-04-03T02:56:29.338Z,6.59
2023-04-03T02:58:56.046Z,6.61
2023-04-03T03:01:22.940Z,6.64
2023-04-03T03:03:49.694Z,6.67
2023-04-03T03:06:18.073Z,6.70
2023-04-03T03:08:44.972Z,6.70
2023-04-03T03:11:12.111Z,6.73
2023-04-03T03:13:39.879Z,6.69
2023-04-03T03:16:07.104Z,6.67
2023-04-03T03:18:34.853Z,6.62
2023-04-03T03:21:02.989Z,6.59
2023-04-03T03:23:31.328Z,6.57
2023-04-03T03:26:00.336Z,6.52
2023-04-03T03:28:27.143Z,6.50
2023-04-03T03:30:54.188Z,6.49
2023-04-03T03:33:21.231Z,6.49
2023-04-03T03:35:47.888Z,6.48
2023-04-03T03:38:14.626Z,6.48
2023-04-03T03:40:41.428Z,6.46
2023-04-03T03:43:08.211Z,6.47
2023-04-03T03:45:35.214Z,6.48
2023-04-03T03:48:03.055Z,6.48
2023-04-03T03:50:29.786Z,6.49
2023-04-03T03:52:56.613Z,6.51
2023-04-03T03:55:23.353Z,6.52
2023-04-03T03:57:50.003Z,6.52
2023-04-03T04:00:17.210Z,6.54
2023-04-03T04:02:44.605Z,6.56
2023-04-03T04:05:11.339Z,6.59
2023-04-03T04:07:38.043Z,6.60
2023-04-03T04:10:05.136Z,6.63
2023-04-03T04:12:31.828Z,6.65
2023-04-03T04:14:58.496Z,6.68
2023-04-03T04:17:25.324Z,6.70
2023-04-03T04:19:52.014Z,6.73
2023-04-03T04:22:18.714Z,6.75
2023-04-03T04:24:45.343Z,6.79
2023-04-03T04:27:12.070Z,6.81
2023-04-03T04:29:38.775Z,6.85
2023-04-03T04:32:05.712Z,6.89
2023-04-03T04:34:33.130Z,6.94
2023-04-03T04:36:59.870Z,6.98
2023-04-03T04:39:26.573Z,7.01
2023-04-03T04:41:53.357Z,7.06
2023-04-03T04:44:21.174Z,7.09
2023-04-03T04:46:48.032Z,7.12
2023-04-03T04:49:14.764Z,7.14
2023-04-03T04:51:51.581Z,7.15
2023-04-03T04:54:19.272Z,7.11
2023-04-03T04:56:46.082Z,7.08
2023-04-03T04:59:13.071Z,7.04
2023-04-03T05:01:40.261Z,7.00
2023-04-03T05:04:07.125Z,6.98
2023-04-03T05:06:34.071Z,6.98
2023-04-03T05:09:00.783Z,6.98
2023-04-03T05:11:27.855Z,6.99
2023-04-03T05:13:54.502Z,7.02
2023-04-03T05:16:21.280Z,7.03
2023-04-03T05:18:48.067Z,7.05
2023-04-03T05:21:14.751Z,7.07
2023-04-03T05:23:41.679Z,7.08
2023-04-03T05:26:08.395Z,7.11
2023-04-03T05:28:35.334Z,7.13
2023-04-03T05:31:01.991Z,7.14
2023-04-03T05:33:28.745Z,7.15
2023-04-03T05:35:55.830Z,7.16
2023-04-03T05:38:22.771Z,7.18
2023-04-03T05:40:49.585Z,7.17
2023-04-03T05:43:16.702Z,7.17
2023-04-03T05:45:46.285Z,7.16
2023-04-03T05:48:13.914Z,7.17
2023-04-03T05:50:42.686Z,7.17
2023-04-03T05:53:28.134Z,7.19
2023-04-03T05:55:55.097Z,7.20
2023-04-03T05:58:21.777Z,7.26
2023-04-03T06:00:48.589Z,7.28
2023-04-03T06:03:15.594Z,7.31
2023-04-03T06:05:42.717Z,7.34
2023-04-03T06:08:10.169Z,7.39
2023-04-03T06:10:37.517Z,7.44
2023-04-03T06:13:04.264Z,7.47
2023-04-03T06:15:30.957Z,7.48
2023-04-03T06:17:57.978Z,7.49
2023-04-03T06:20:25.592Z,7.51
2023-04-03T06:22:52.575Z,7.50
2023-04-03T06:25:20.005Z,7.48
2023-04-03T06:27:46.908Z,7.47
2023-04-03T06:30:14.172Z,7.45
2023-04-03T06:32:41.528Z,7.47
2023-04-03T06:35:08.653Z,7.47
2023-04-03T06:37:35.419Z,7.47
2023-04-03T06:40:02.757Z,7.48
2023-04-03T06:42:29.635Z,7.47
2023-04-03T06:44:56.749Z,7.47
2023-04-03T06:47:23.361Z,7.49
2023-04-03T06:49:50.035Z,7.49
2023-04-03T06:52:16.700Z,7.50
2023-04-03T06:54:43.397Z,7.47
2023-04-03T06:57:10.225Z,7.45
2023-04-03T06:59:37.666Z,7.44
2023-04-03T07:02:04.867Z,7.44
2023-04-03T07:04:31.818Z,7.44
2023-04-03T07:06:58.534Z,7.45
2023-04-03T07:09:25.717Z,7.47
2023-04-03T07:11:52.399Z,7.50
2023-04-03T07:14:19.328Z,7.54
2023-04-03T07:16:45.952Z,7.55
2023-04-03T07:19:12.881Z,7.59
2023-04-03T07:21:39.854Z,7.61
2023-04-03T07:24:07.515Z,7.65
2023-04-03T07:26:36.366Z,7.68
2023-04-03T07:29:03.469Z,7.71
2023-04-03T07:31:30.215Z,7.74
2023-04-03T07:33:58.253Z,7.77
2023-04-03T07:36:25.321Z,7.79
2023-04-03T07:38:52.072Z,7.81
2023-04-03T07:41:21.248Z,7.85
2023-04-03T07:43:48.147Z,7.87
2023-04-03T07:46:14.928Z,7.88
2023-04-03T07:48:41.893Z,7.88
2023-04-03T07:51:08.598Z,7.88
2023-04-03T07:53:35.374Z,7.88
2023-04-03T07:56:03.769Z,7.88
2023-04-03T07:58:30.935Z,7.88
2023-04-03T08:00:58.388Z,7.87
2023-04-03T08:03:25.582Z,7.89
2023-04-03T08:05:52.551Z,7.94
2023-04-03T08:08:22.714Z,7.99
2023-04-03T08:10:54.809Z,8.04
2023-04-03T08:13:22.406Z,8.09
2023-04-03T08:15:49.239Z,8.16
2023-04-03T08:18:17.050Z,8.19
2023-04-03T08:20:44.330Z,8.21
2023-04-03T08:23:11.430Z,8.23
2023-04-03T08:25:42.346Z,8.32
2023-04-03T08:28:10.662Z,8.36
2023-04-03T08:30:39.800Z,8.38
2023-04-03T08:33:07.270Z,8.41
2023-04-03T08:35:34.845Z,8.48
2023-04-03T08:38:03.010Z,8.53
2023-04-03T08:40:30.744Z,8.56
2023-04-03T08:42:57.388Z,8.55
2023-04-03T08:45:51.526Z,8.50
2023-04-03T08:48:23.481Z,8.44
2023-04-03T08:51:03.171Z,8.42
2023-04-03T08:53:35.067Z,8.45
2023-04-03T08:56:09.354Z,8.56
2023-04-03T08:58:48.994Z,8.71
2023-04-03T09:01:24.551Z,8.78
2023-04-03T09:03:51.974Z,8.80
2023-04-03T09:06:33.870Z,8.86
2023-04-03T09:09:34.141Z,9.09
2023-04-03T09:12:20.929Z,9.32
2023-04-03T09:15:01.440Z,9.64
2023-04-03T09:17:58.810Z,9.69
2023-04-03T09:20:43.574Z,9.75
2023-04-03T09:23:25.860Z,9.91
2023-04-03T09:25:57.667Z,10.10
2023-04-03T09:28:24.435Z,10.26
2023-04-03T09:30:51.057Z,10.80
2023-04-03T09:33:18.659Z,11.62
2023-04-03T09:35:48.641Z,12.01
2023-04-03T09:38:22.211Z,11.99
2023-04-03T09:41:06.462Z,11.68
2023-04-03T09:43:35.508Z,11.47
2023-04-03T09:46:40.527Z,11.50
2023-04-03T09:49:13.073Z,11.24
2023-04-03T09:51:39.860Z,10.92
2023-04-03T09:54:37.010Z,10.60
2023-04-03T09:57:16.294Z,10.32
2023-04-03T10:00:00.688Z,10.16
2023-04-03T10:02:41.331Z,10.03
2023-04-03T10:05:32.864Z,9.90
2023-04-03T10:08:11.222Z,9.86
2023-04-03T10:10:39.232Z,9.77
2023-04-03T10:13:16.430Z,9.71
2023-04-03T10:16:01.360Z,9.63
2023-04-03T10:18:45.791Z,9.58
2023-04-03T10:21:49.688Z,9.52
2023-04-03T10:24:51.899Z,9.45
2023-04-03T10:27:23.317Z,9.38
2023-04-03T10:30:15.340Z,9.28
2023-04-03T10:32:41.964Z,9.19
2023-04-03T10:35:54.161Z,9.12
2023-04-03T10:38:42.478Z,9.06
2023-04-03T10:41:21.778Z,9.08
2023-04-03T10:43:56.435Z,9.12
2023-04-03T10:46:43.115Z,9.12
2023-04-03T10:49:26.531Z,9.11
2023-04-03T10:52:00.590Z,9.17
2023-04-03T10:54:42.579Z,9.27
2023-04-03T10:57:13.803Z,9.36
2023-04-03T10:59:55.123Z,9.41
2023-04-03T11:02:34.555Z,9.48
2023-04-03T11:05:16.621Z,9.56
2023-04-03T11:07:54.297Z,9.60
2023-04-03T11:10:30.132Z,9.64
2023-04-03T11:13:09.306Z,9.84
2023-04-03T11:15:36.587Z,9.99
2023-04-03T11:18:11.890Z,10.13
2023-04-03T11:20:45.490Z,10.26
2023-04-03T11:23:42.315Z,10.34
2023-04-03T11:26:18.862Z,10.37
2023-04-03T11:28:46.992Z,10.44
2023-04-03T11:31:25.245Z,10.42
2023-04-03T11:34:37.317Z,10.35
2023-04-03T11:37:14.278Z,10.23
2023-04-03T11:39:49.094Z,10.16
2023-04-03T11:42:29.078Z,10.23
2023-04-03T11:45:25.666Z,10.37
2023-04-03T11:47:55.088Z,10.43
2023-04-03T11:50:43.379Z,10.54
2023-04-03T11:53:13.056Z,10.66
2023-04-03T11:55:50.021Z,10.77
2023-04-03T11:58:19.491Z,10.82
2023-04-03T12:00:52.178Z,10.84
2023-04-03T12:03:31.034Z,10.87
2023-04-03T12:06:07.149Z,10.87
2023-04-03T12:08:33.781Z,10.77
2023-04-03T12:11:12.341Z,10.70
2023-04-03T12:13:43.428Z,10.71
2023-04-03T12:16:27.386Z,10.75
2023-04-03T12:18:54.153Z,10.78
2023-04-03T12:21:44.185Z,10.80
2023-04-03T12:24:13.533Z,10.93
2023-04-03T12:27:03.943Z,11.02
2023-04-03T12:29:34.334Z,11.07
2023-04-03T12:32:25.474Z,11.07
2023-04-03T12:35:29.655Z,11.02
2023-04-03T12:38:28.256Z,11.05
2023-04-03T12:41:22.647Z,11.11
2023-04-03T12:44:14.924Z,11.12
2023-04-03T12:46:47.317Z,11.06
2023-04-03T12:49:36.221Z,10.98
2023-04-03T12:52:07.209Z,10.98
2023-04-03T12:54:37.434Z,11.06
2023-04-03T12:57:16.337Z,11.10
2023-04-03T12:59:46.462Z,11.11
2023-04-03T13:02:22.378Z,11.13
2023-04-03T13:04:50.155Z,11.28
2023-04-03T13:07:34.303Z,11.35
2023-04-03T13:10:07.893Z,11.33
2023-04-03T13:12:36.498Z,11.41
2023-04-03T13:15:18.934Z,11.54
2023-04-03T13:17:46.432Z,11.70
2023-04-03T13:20:25.182Z,11.86
2023-04-03T13:23:01.050Z,11.98
2023-04-03T13:25:32.538Z,11.93
2023-04-03T13:28:12.537Z,11.82
2023-04-03T13:30:42.707Z,11.75
2023-04-03T13:33:26.823Z,11.85
2023-04-03T13:36:05.549Z,12.01
2023-04-03T13:38:37.326Z,12.13
2023-04-03T13:41:22.900Z,12.23
2023-04-03T13:43:50.752Z,12.36
2023-04-03T13:46:18.565Z,12.50
2023-04-03T13:48:52.138Z,12.57
2023-04-03T13:51:28.221Z,12.52
2023-04-03T13:54:14.301Z,12.48
2023-04-03T13:56:43.113Z,12.49
2023-04-03T13:59:13.010Z,12.48
2023-04-03T14:02:07.886Z,12.46
2023-04-03T14:04:46.503Z,12.28
2023-04-03T14:07:14.734Z,12.08
2023-04-03T14:09:41.716Z,12.15
2023-04-03T14:12:32.586Z,12.26
2023-04-03T14:15:02.031Z,12.40
2023-04-03T14:17:30.059Z,12.56
2023-04-03T14:19:57.454Z,12.73
2023-04-03T14:22:31.156Z,12.90
2023-04-03T14:24:58.834Z,12.97
2023-04-03T14:27:34.572Z,12.98
2023-04-03T14:30:04.059Z,13.05
2023-04-03T14:32:30.987Z,13.20
2023-04-03T14:34:59.266Z,13.25
2023-04-03T14:37:30.309Z,13.27
2023-04-03T14:39:59.159Z,13.21
2023-04-03T14:42:31.870Z,13.20
2023-04-03T14:44:59.567Z,13.26
2023-04-03T14:47:31.798Z,13.33
2023-04-03T14:50:01.204Z,13.36
2023-04-03T14:52:32.225Z,13.32
2023-04-03T14:54:59.421Z,13.23
2023-04-03T14:57:28.499Z,13.19
2023-04-03T14:59:55.444Z,13.21
2023-04-03T15:02:33.180Z,13.22
2023-04-03T15:05:01.799Z,13.32
2023-04-03T15:07:30.687Z,13.37
2023-04-03T15:09:57.661Z,13.53
2023-04-03T15:12:25.805Z,13.57
2023-04-03T15:14:57.644Z,13.59
2023-04-03T15:17:26.907Z,13.61
2023-04-03T15:19:53.609Z,13.63
2023-04-03T15:22:21.182Z,13.56
2023-04-03T15:24:48.144Z,13.64
2023-04-03T15:27:16.477Z,13.63
2023-04-03T15:29:44.184Z,13.60
2023-04-03T15:32:11.535Z,13.61
2023-04-03T15:34:38.967Z,13.69
2023-04-03T15:37:06.454Z,13.80
2023-04-03T15:39:33.299Z,13.85
2023-04-03T15:42:07.176Z,13.87
2023-04-03T15:44:35.589Z,13.85
2023-04-03T15:47:03.115Z,13.71
2023-04-03T15:49:29.826Z,13.64
2023-04-03T15:51:56.597Z,13.68
2023-04-03T15:54:25.024Z,13.57
2023-04-03T15:56:52.608Z,13.46
2023-04-03T15:59:19.960Z,13.51
2023-04-03T16:01:47.050Z,13.54
2023-04-03T16:04:15.597Z,13.51
2023-04-03T16:06:43.650Z,13.43
2023-04-03T16:09:11.125Z,13.38
2023-04-03T16:11:40.346Z,13.43
2023-04-03T16:14:08.535Z,13.40
2023-04-03T16:16:36.631Z,13.43
2023-04-03T16:19:03.975Z,13.47
2023-04-03T16:21:30.832Z,13.49
2023-04-03T16:23:59.424Z,13.46
2023-04-03T16:26:27.182Z,13.42
2023-04-03T16:28:54.849Z,13.37
2023-04-03T16:31:22.802Z,13.44
2023-04-03T16:33:49.683Z,13.43
2023-04-03T16:36:16.707Z,13.31
2023-04-03T16:38:43.413Z,13.23
2023-04-03T16:41:10.041Z,13.19
2023-04-03T16:43:37.910Z,13.09
2023-04-03T16:46:04.765Z,13.02
2023-04-03T16:48:32.329Z,12.92
2023-04-03T16:50:59.332Z,12.82
2023-04-03T16:53:27.084Z,12.77
2023-04-03T16:55:54.154Z,12.73
2023-04-03T16:58:23.375Z,12.68
2023-04-03T17:00:51.428Z,12.66
2023-04-03T17:03:18.335Z,12.59
2023-04-03T17:05:48.763Z,12.53
2023-04-03T17:08:17.324Z,12.48
2023-04-03T17:10:43.997Z,12.41
2023-04-03T17:13:10.843Z,12.31
2023-04-03T17:15:37.859Z,12.15
2023-04-03T17:18:04.892Z,12.06
2023-04-03T17:20:31.650Z,11.96
2023-04-03T17:22:58.662Z,11.85
2023-04-03T17:25:25.300Z,11.72
2023-04-03T17:27:52.009Z,11.61
2023-04-03T17:30:18.650Z,11.46
2023-04-03T17:32:45.444Z,11.40
2023-04-03T17:35:12.151Z,11.29
2023-04-03T17:37:38.937Z,11.20
2023-04-03T17:40:06.763Z,11.16
2023-04-03T17:42:33.630Z,11.06
2023-04-03T17:45:01.216Z,10.97
2023-04-03T17:47:28.048Z,10.85
2023-04-03T17:49:54.858Z,10.72
2023-04-03T17:52:25.496Z,10.62
2023-04-03T17:54:52.238Z,10.58
2023-04-03T17:57:19.131Z,10.54
2023-04-03T17:59:46.281Z,10.50
2023-04-03T18:02:12.923Z,10.45
2023-04-03T18:04:39.640Z,10.39
2023-04-03T18:07:09.710Z,10.33
2023-04-03T18:09:38.019Z,10.30
2023-04-03T18:12:07.303Z,10.28
2023-04-03T18:14:36.125Z,10.28
2023-04-03T18:17:03.042Z,10.25
2023-04-03T18:19:30.145Z,10.22
2023-04-03T18:22:02.255Z,10.17
2023-04-03T18:24:32.049Z,10.12
2023-04-03T18:27:02.150Z,10.10
2023-04-03T18:29:32.636Z,10.10
2023-04-03T18:32:04.286Z,10.09
2023-04-03T18:34:31.816Z,10.06
2023-04-03T18:36:58.470Z,10.00
2023-04-03T18:39:26.982Z,9.92
2023-04-03T18:41:55.111Z,9.89
2023-04-03T18:44:25.074Z,9.85
2023-04-03T18:46:53.950Z,9.80
2023-04-03T18:49:21.136Z,9.78
2023-04-03T18:51:48.088Z,9.75
2023-04-03T18:54:14.689Z,9.69
2023-04-03T18:56:41.424Z,9.63
2023-04-03T18:59:08.174Z,9.58
2023-04-03T19:01:35.241Z,9.54
2023-04-03T19:04:02.445Z,9.53
2023-04-03T19:06:29.580Z,9.48
2023-04-03T19:08:56.433Z,9.40
2023-04-03T19:11:23.217Z,9.35
2023-04-03T19:16:20.075Z,9.35
2023-04-03T19:18:46.785Z,9.35
2023-04-03T19:21:15.013Z,9.33
2023-04-03T19:23:44.686Z,9.26
2023-04-03T19:26:13.264Z,9.20
2023-04-03T19:28:41.704Z,9.19
2023-04-03T19:31:17.349Z,9.17
2023-04-03T19:33:45.331Z,9.10
2023-04-03T19:36:12.399Z,9.04
2023-04-03T19:38:39.928Z,9.00
2023-04-03T19:41:13.232Z,8.96
2023-04-03T19:43:44.564Z,8.92
2023-04-03T19:46:11.731Z,8.86
2023-04-03T19:48:38.548Z,8.85
2023-04-03T19:51:06.209Z,8.83
2023-04-03T19:53:33.088Z,8.82
2023-04-03T19:56:00.995Z,8.78
2023-04-03T19:58:29.983Z,8.79
2023-04-03T20:00:58.221Z,8.79
2023-04-03T20:03:26.154Z,8.78
2023-04-03T20:05:55.208Z,8.71
2023-04-03T20:08:21.951Z,8.69
2023-04-03T20:10:49.100Z,8.70
2023-04-03T20:13:15.922Z,8.69
2023-04-03T20:15:44.542Z,8.63
2023-04-03T20:18:19.561Z,8.61
2023-04-03T20:20:57.659Z,8.56
2023-04-03T20:23:30.859Z,8.52
2023-04-03T20:26:09.172Z,8.49
2023-04-03T20:28:38.679Z,8.48
2023-04-03T20:31:06.648Z,8.44
2023-04-03T20:33:33.996Z,8.43
2023-04-03T20:36:01.676Z,8.41
2023-04-03T20:38:28.624Z,8.39
2023-04-03T20:40:55.549Z,8.37
2023-04-03T20:43:23.380Z,8.32
2023-04-03T20:45:51.026Z,8.31
2023-04-03T20:48:18.511Z,8.28
2023-04-03T20:50:46.491Z,8.24
2023-04-03T20:53:15.031Z,8.23
2023-04-03T20:55:42.644Z,8.24
2023-04-03T20:58:09.506Z,8.22
2023-04-03T21:00:37.892Z,8.21
2023-04-03T21:03:05.801Z,8.22
2023-04-03T21:05:34.723Z,8.20
2023-04-03T21:08:40.226Z,8.14
2023-04-03T21:11:45.255Z,8.08
2023-04-03T21:14:49.551Z,8.04
2023-04-03T21:17:16.520Z,8.02
2023-04-03T21:19:46.561Z,7.99
2023-04-03T21:22:14.037Z,7.97
2023-04-03T21:24:41.105Z,7.93
2023-04-03T21:27:08.344Z,7.93
2023-04-03T21:29:35.291Z,7.93
2023-04-03T21:32:02.191Z,7.91
2023-04-03T21:34:30.277Z,7.89
2023-04-03T21:37:09.511Z,7.87
2023-04-03T21:39:36.689Z,7.88
2023-04-03T21:42:03.462Z,7.85
2023-04-03T21:44:30.411Z,7.82
2023-04-03T21:46:57.116Z,7.80
2023-04-03T21:49:25.538Z,7.80
2023-04-03T21:51:52.609Z,7.82
2023-04-03T21:54:20.157Z,7.80
2023-04-03T21:56:52.329Z,7.76
2023-04-03T21:59:19.332Z,7.75
2023-04-03T22:01:46.165Z,7.75
2023-04-03T22:04:12.917Z,7.75
2023-04-03T22:06:39.660Z,7.75
2023-04-03T22:09:06.631Z,7.73
2023-04-03T22:11:33.531Z,7.77
2023-04-03T22:14:01.021Z,7.79
2023-04-03T22:16:27.854Z,7.79
2023-04-03T22:18:55.067Z,7.75
2023-04-03T22:21:22.480Z,7.73
2023-04-03T22:23:49.483Z,7.73
2023-04-03T22:26:16.556Z,7.68
2023-04-03T22:28:47.626Z,7.62
2023-04-03T22:31:16.317Z,7.59
2023-04-03T22:33:44.985Z,7.60
2023-04-03T22:36:13.141Z,7.58
2023-04-03T22:38:43.527Z,7.54
2023-04-03T22:41:10.723Z,7.53
2023-04-03T22:43:38.211Z,7.52
2023-04-03T22:46:07.620Z,7.52
2023-04-03T22:48:35.146Z,7.50
2023-04-03T22:51:07.438Z,7.46
2023-04-03T22:53:35.672Z,7.47
2023-04-03T22:56:04.968Z,7.43
2023-04-03T22:58:31.796Z,7.41
2023-04-03T23:01:12.613Z,7.40
2023-04-03T23:03:41.386Z,7.39
2023-04-03T23:06:09.528Z,7.36
2023-04-03T23:08:41.003Z,7.39
2023-04-03T23:11:09.681Z,7.38
2023-04-03T23:13:36.907Z,7.33
2023-04-03T23:16:04.727Z,7.31
2023-04-03T23:18:39.693Z,7.33
2023-04-03T23:21:07.976Z,7.30
2023-04-03T23:23:34.849Z,7.26
2023-04-03T23:26:02.710Z,7.25
2023-04-03T23:28:29.991Z,7.24
2023-04-03T23:31:10.311Z,7.23
2023-04-03T23:33:38.475Z,7.21
2023-04-03T23:36:08.834Z,7.21
2023-04-03T23:38:36.407Z,7.20
2023-04-03T23:41:03.173Z,7.19
2023-04-03T23:43:31.258Z,7.19
2023-04-03T23:45:58.521Z,7.19
2023-04-03T23:48:25.466Z,7.19
2023-04-03T23:50:52.091Z,7.21
2023-04-03T23:53:19.257Z,7.21
2023-04-03T23:55:46.001Z,7.17
2023-04-03T23:58:12.693Z,7.18
